Time;durP1;ratioP1;P1;durP2;ratioP2;P2;SDS_P1;SDS_P2;PMS_P1;PMS_P2;Temp;Humidity;BMP_temperature;BMP_pressure;BME280_temperature;BME280_humidity;BME280_pressure;Samples;Min_cycle;Max_cycle;Signal;HPM_P1;HPM_P2
2022/10/08 00:00:50;;;;;;;40.35;23.85;;;7.90;99.90;;;;;;5075182;28;20053;-69
2022/10/08 00:03:17;;;;;;;73.82;38.83;;;7.90;99.90;;;;;;5076280;28;20021;-69
2022/10/08 00:05:53;;;;;;;109.10;56.85;;;7.90;99.90;;;;;;5076615;28;20032;-69
2022/10/08 00:08:18;;;;;;;136.52;65.07;;;7.90;99.90;;;;;;5076315;28;20020;-69
2022/10/08 00:10:55;;;;;;;136.15;67.53;;;7.80;99.90;;;;;;5076547;28;20069;-70
2022/10/08 00:13:22;;;;;;;143.27;67.43;;;7.70;99.90;;;;;;5074407;28;20028;-69
2022/10/08 00:15:49;;;;;;;96.63;44.15;;;7.70;99.90;;;;;;5076080;28;20020;-74
2022/10/08 00:18:14;;;;;;;58.55;30.73;;;7.70;99.90;;;;;;5076017;28;20474;-75
2022/10/08 00:20:41;;;;;;;76.63;36.70;;;7.60;99.90;;;;;;5076226;28;20033;-74
2022/10/08 00:23:07;;;;;;;83.57;39.80;;;7.60;99.90;;;;;;5074676;28;20416;-75
2022/10/08 00:25:41;;;;;;;194.48;88.75;;;7.60;99.90;;;;;;5059276;28;20021;-75
2022/10/08 00:28:12;;;;;;;165.95;79.50;;;7.50;99.90;;;;;;5056003;28;20025;-74
2022/10/08 00:30:39;;;;;;;97.55;48.88;;;7.50;99.90;;;;;;5055074;28;20540;-68
2022/10/08 00:33:06;;;;;;;74.82;39.20;;;7.50;99.90;;;;;;5057055;28;20013;-74
2022/10/08 00:35:37;;;;;;;44.13;24.70;;;7.50;99.90;;;;;;5076016;28;20141;-75
2022/10/08 00:38:04;;;;;;;49.47;26.88;;;7.50;99.90;;;;;;5075637;28;20012;-69
2022/10/08 00:40:30;;;;;;;35.50;21.65;;;7.40;99.90;;;;;;5075814;28;20028;-75
2022/10/08 00:42:59;;;;;;;37.30;20.63;;;7.50;99.90;;;;;;5075716;28;20021;-69
2022/10/08 00:45:24;;;;;;;57.72;32.35;;;7.40;99.90;;;;;;5075538;28;20025;-74
2022/10/08 00:47:52;;;;;;;67.63;35.00;;;7.40;99.90;;;;;;5074317;28;20032;-74
2022/10/08 00:50:20;;;;;;;62.05;32.58;;;7.30;99.90;;;;;;5074895;28;20024;-69
2022/10/08 00:52:49;;;;;;;51.65;27.80;;;7.30;99.90;;;;;;5075588;28;20070;-69
2022/10/08 00:55:18;;;;;;;30.67;19.25;;;7.30;99.90;;;;;;5075397;28;20093;-69
2022/10/08 00:57:44;;;;;;;25.90;16.25;;;7.30;99.90;;;;;;5075495;28;20466;-74
2022/10/08 01:00:16;;;;;;;18.70;13.48;;;7.30;99.90;;;;;;5072359;28;20056;-69
2022/10/08 01:02:42;;;;;;;22.40;13.95;;;7.30;99.90;;;;;;5055468;28;20048;-69
2022/10/08 01:05:10;;;;;;;39.47;23.52;;;7.20;99.90;;;;;;5055407;28;20036;-74
2022/10/08 01:07:58;;;;;;;41.00;23.80;;;7.20;99.90;;;;;;5055314;28;20021;-74
2022/10/08 01:10:37;;;;;;;90.72;50.05;;;7.10;99.90;;;;;;5054090;28;20021;-74
2022/10/08 01:13:25;;;;;;;70.63;39.75;;;7.10;99.90;;;;;;5055122;28;20021;-74
2022/10/08 01:16:00;;;;;;;66.22;37.83;;;7.00;99.90;;;;;;5054039;28;20021;-68
2022/10/08 01:18:41;;;;;;;98.43;55.65;;;7.10;99.90;;;;;;5055046;28;20096;-68
2022/10/08 01:21:22;;;;;;;61.42;36.45;;;7.00;99.90;;;;;;5053712;28;20064;-73
2022/10/08 01:24:12;;;;;;;47.05;30.20;;;7.00;99.90;;;;;;5057594;28;20017;-74
2022/10/08 01:27:01;;;;;;;45.70;26.33;;;7.00;99.90;;;;;;5073662;28;20032;-74
2022/10/08 01:29:40;;;;;;;35.03;20.33;;;7.00;99.90;;;;;;5074596;28;20025;-74
2022/10/08 01:32:18;;;;;;;29.65;18.10;;;7.00;99.90;;;;;;5074877;28;20390;-69
2022/10/08 01:34:51;;;;;;;31.42;18.80;;;6.90;99.90;;;;;;5055252;28;20036;-74
2022/10/08 01:37:25;;;;;;;21.60;14.43;;;6.90;99.90;;;;;;5054802;28;20032;-69
2022/10/08 01:39:53;;;;;;;20.65;13.82;;;6.90;99.90;;;;;;5054761;28;20056;-73
2022/10/08 01:42:22;;;;;;;25.92;16.67;;;6.90;99.90;;;;;;5053157;28;20029;-69
2022/10/08 01:44:57;;;;;;;33.30;20.13;;;6.90;99.90;;;;;;5054647;28;20029;-69
2022/10/08 01:47:26;;;;;;;27.50;16.63;;;6.80;99.90;;;;;;5054536;28;20025;-74
2022/10/08 01:50:11;;;;;;;25.73;16.77;;;6.80;99.90;;;;;;5054690;28;20428;-74
2022/10/08 01:52:42;;;;;;;24.65;17.25;;;6.80;99.90;;;;;;5054602;28;20025;-74
2022/10/08 01:55:15;;;;;;;25.10;16.88;;;6.70;99.90;;;;;;5053235;28;20033;-74
2022/10/08 01:57:42;;;;;;;32.75;18.63;;;6.70;99.90;;;;;;5054228;28;20021;-69
2022/10/08 02:00:12;;;;;;;23.45;16.00;;;6.70;99.90;;;;;;5054140;28;20059;-69
2022/10/08 02:02:38;;;;;;;30.02;17.13;;;6.70;99.90;;;;;;5053230;28;20132;-69
2022/10/08 02:05:05;;;;;;;31.02;17.77;;;6.70;99.90;;;;;;5054312;28;20083;-74
2022/10/08 02:07:34;;;;;;;30.50;20.23;;;6.70;99.90;;;;;;5054194;28;20071;-73
2022/10/08 02:10:11;;;;;;;33.63;18.42;;;6.60;99.90;;;;;;5054148;28;20028;-69
2022/10/08 02:12:39;;;;;;;32.80;17.92;;;6.60;99.90;;;;;;5054076;28;20562;-68
2022/10/08 02:15:12;;;;;;;27.13;16.88;;;6.60;99.90;;;;;;5052761;28;20029;-68
2022/10/08 02:17:56;;;;;;;35.17;19.67;;;6.60;99.90;;;;;;5053973;28;20483;-69
2022/10/08 02:20:35;;;;;;;26.55;16.48;;;6.50;99.90;;;;;;5054093;28;20037;-74
2022/10/08 02:23:10;;;;;;;31.00;18.13;;;6.50;99.90;;;;;;5053967;28;20052;-74
2022/10/08 02:25:56;;;;;;;31.10;18.38;;;6.40;99.90;;;;;;5070176;28;20480;-70
2022/10/08 02:28:48;;;;;;;25.23;14.68;;;6.40;99.90;;;;;;5073768;28;20108;-74
2022/10/08 02:31:19;;;;;;;21.52;14.10;;;6.40;99.90;;;;;;5073900;28;20025;-69
2022/10/08 02:33:53;;;;;;;24.90;14.73;;;6.40;99.90;;;;;;5061634;28;20029;-69
2022/10/08 02:36:24;;;;;;;22.33;14.85;;;6.40;99.90;;;;;;5053700;28;20025;-68
2022/10/08 02:38:56;;;;;;;22.05;14.18;;;6.40;99.90;;;;;;5053673;28;20588;-69
2022/10/08 02:41:29;;;;;;;22.15;13.43;;;6.40;99.90;;;;;;5053668;28;20099;-69
2022/10/08 02:43:58;;;;;;;23.30;14.25;;;6.40;99.90;;;;;;5053750;28;20086;-69
2022/10/08 02:46:27;;;;;;;21.63;12.90;;;6.40;99.90;;;;;;5053421;28;20039;-74
2022/10/08 02:49:04;;;;;;;20.30;13.05;;;6.40;99.90;;;;;;5053304;28;20530;-69
2022/10/08 02:51:35;;;;;;;18.90;12.20;;;6.40;99.90;;;;;;5053775;28;20021;-69
2022/10/08 02:54:03;;;;;;;18.58;11.57;;;6.40;99.90;;;;;;5053382;28;20403;-69
2022/10/08 02:56:40;;;;;;;25.17;13.85;;;6.40;99.90;;;;;;5052208;28;20483;-74
2022/10/08 02:59:09;;;;;;;19.50;11.73;;;6.30;99.90;;;;;;5053347;28;20047;-74
2022/10/08 03:01:56;;;;;;;25.73;13.98;;;6.30;99.90;;;;;;5053214;28;20050;-74
2022/10/08 03:04:27;;;;;;;30.30;14.13;;;6.30;99.90;;;;;;5052111;28;20025;-74
2022/10/08 03:06:54;;;;;;;32.05;15.60;;;6.30;99.90;;;;;;5052036;28;20028;-69
2022/10/08 03:09:22;;;;;;;31.33;15.82;;;6.30;99.90;;;;;;5053253;28;20018;-74
2022/10/08 03:11:49;;;;;;;38.83;16.27;;;6.30;99.90;;;;;;5053318;28;20048;-74
2022/10/08 03:14:18;;;;;;;26.27;15.20;;;6.20;99.90;;;;;;5052894;28;20428;-73
2022/10/08 03:16:45;;;;;;;22.40;14.13;;;6.20;99.90;;;;;;5053285;28;20017;-69
2022/10/08 03:19:13;;;;;;;34.92;15.20;;;6.20;99.90;;;;;;5052827;28;20529;-74
2022/10/08 03:21:41;;;;;;;33.40;16.58;;;6.10;99.90;;;;;;5053161;28;20418;-69
2022/10/08 03:24:09;;;;;;;27.45;15.63;;;6.10;99.90;;;;;;5057497;28;20024;-69
2022/10/08 03:26:35;;;;;;;32.58;16.90;;;6.10;99.90;;;;;;5073255;28;20035;-74
2022/10/08 03:29:01;;;;;;;29.33;14.35;;;6.00;99.90;;;;;;5073021;28;20024;-74
2022/10/08 03:31:26;;;;;;;26.58;14.93;;;6.00;99.90;;;;;;5071670;28;20374;-68
2022/10/08 03:33:53;;;;;;;20.20;12.07;;;6.00;99.90;;;;;;5059679;28;20025;-69
2022/10/08 03:36:20;;;;;;;21.60;13.93;;;6.00;99.90;;;;;;5053166;28;20025;-69
2022/10/08 03:38:46;;;;;;;21.92;13.60;;;6.00;99.90;;;;;;5053067;28;20025;-74
2022/10/08 03:41:12;;;;;;;23.45;13.20;;;6.00;99.90;;;;;;5052931;28;20041;-69
2022/10/08 03:43:38;;;;;;;25.08;13.07;;;5.90;99.90;;;;;;5053062;28;20470;-70
2022/10/08 03:46:04;;;;;;;28.10;13.85;;;5.90;99.90;;;;;;5051681;28;20099;-73
2022/10/08 03:48:30;;;;;;;26.40;13.65;;;5.90;99.90;;;;;;5052872;28;20025;-69
2022/10/08 03:50:58;;;;;;;25.33;14.10;;;5.80;99.90;;;;;;5052768;28;20383;-68
2022/10/08 03:53:24;;;;;;;18.55;11.60;;;5.80;99.90;;;;;;5052926;28;20025;-69
2022/10/08 03:55:50;;;;;;;20.80;13.40;;;5.70;99.90;;;;;;5052884;28;20060;-73
2022/10/08 03:58:16;;;;;;;21.92;12.85;;;5.80;99.90;;;;;;5051472;28;20053;-69
2022/10/08 04:00:42;;;;;;;21.00;12.80;;;5.70;99.90;;;;;;5052417;28;20045;-69
2022/10/08 04:03:08;;;;;;;27.27;14.30;;;5.70;99.90;;;;;;5052701;28;20390;-69
2022/10/08 04:05:34;;;;;;;20.45;12.50;;;5.70;99.90;;;;;;5052781;28;20028;-74
2022/10/08 04:07:59;;;;;;;33.40;15.50;;;5.70;99.90;;;;;;5052616;28;20590;-74
2022/10/08 04:10:25;;;;;;;31.17;15.48;;;5.60;99.90;;;;;;5052670;28;20151;-74
2022/10/08 04:12:51;;;;;;;55.60;18.35;;;5.60;99.90;;;;;;5052753;28;20029;-74
2022/10/08 04:15:17;;;;;;;44.55;17.58;;;5.60;99.90;;;;;;5052671;28;20092;-69
2022/10/08 04:17:42;;;;;;;38.83;18.88;;;5.60;99.90;;;;;;5051365;28;20032;-69
2022/10/08 04:20:08;;;;;;;42.78;19.50;;;5.60;99.90;;;;;;5052713;28;20025;-74
2022/10/08 04:22:34;;;;;;;36.03;18.77;;;5.60;99.90;;;;;;5052843;28;20124;-70
2022/10/08 04:24:59;;;;;;;51.13;20.63;;;5.60;99.90;;;;;;5065409;28;20020;-69
2022/10/08 04:27:25;;;;;;;46.28;18.92;;;5.60;99.90;;;;;;5076050;28;20029;-69
2022/10/08 04:29:51;;;;;;;49.03;18.35;;;5.60;99.90;;;;;;5051474;28;20036;-73
2022/10/08 04:32:17;;;;;;;42.53;19.67;;;5.60;99.90;;;;;;5067849;28;20060;-69
2022/10/08 04:34:42;;;;;;;42.10;16.55;;;5.60;99.90;;;;;;5068272;28;21060;-69
2022/10/08 04:37:08;;;;;;;43.15;19.95;;;5.60;99.90;;;;;;5062206;28;20041;-69
2022/10/08 04:39:33;;;;;;;38.45;16.98;;;5.60;99.90;;;;;;5069864;28;20028;-68
2022/10/08 04:42:00;;;;;;;42.95;17.02;;;5.60;99.90;;;;;;5075303;28;20047;-69
2022/10/08 04:44:26;;;;;;;41.80;17.27;;;5.50;99.90;;;;;;5074476;28;20060;-69
2022/10/08 04:46:52;;;;;;;49.13;18.05;;;5.60;99.90;;;;;;5063168;28;20047;-70
2022/10/08 04:49:18;;;;;;;33.38;16.02;;;5.60;99.90;;;;;;5050770;28;20023;-69
2022/10/08 04:51:44;;;;;;;36.95;16.73;;;5.60;99.90;;;;;;5063163;28;20119;-74
2022/10/08 04:54:10;;;;;;;33.30;17.70;;;5.50;99.90;;;;;;5058772;28;20100;-69
2022/10/08 04:56:36;;;;;;;32.45;16.63;;;5.50;99.90;;;;;;5067644;28;20101;-69
2022/10/08 04:59:02;;;;;;;30.65;14.85;;;5.50;99.90;;;;;;5068673;28;20425;-69
2022/10/08 05:01:29;;;;;;;26.67;15.05;;;5.50;99.90;;;;;;5059593;28;20040;-69
2022/10/08 05:03:56;;;;;;;31.85;15.93;;;5.60;99.90;;;;;;5047195;28;20057;-74
2022/10/08 05:06:24;;;;;;;64.65;17.98;;;5.60;99.90;;;;;;5051906;28;20037;-69
2022/10/08 05:08:51;;;;;;;37.47;17.77;;;5.50;99.90;;;;;;5048498;28;20037;-74
2022/10/08 05:11:17;;;;;;;33.63;16.17;;;5.50;99.90;;;;;;5057706;28;20068;-74
2022/10/08 05:13:47;;;;;;;37.08;17.00;;;5.60;99.90;;;;;;5051157;28;20106;-73
2022/10/08 05:16:13;;;;;;;45.30;17.48;;;5.50;99.90;;;;;;5059673;28;20038;-74
2022/10/08 05:18:40;;;;;;;46.60;17.33;;;5.60;99.90;;;;;;5049278;28;20029;-69
2022/10/08 05:21:11;;;;;;;29.38;15.90;;;5.60;99.90;;;;;;5046944;28;20090;-69
2022/10/08 05:23:37;;;;;;;29.58;17.02;;;5.50;99.90;;;;;;5058024;28;20032;-68
2022/10/08 05:26:17;;;;;;;30.10;14.88;;;5.60;99.90;;;;;;5072165;28;20146;-74
2022/10/08 05:28:43;;;;;;;23.88;15.10;;;5.60;99.90;;;;;;5073930;28;20021;-69
2022/10/08 05:31:09;;;;;;;27.67;14.77;;;5.60;99.90;;;;;;5046267;28;20033;-74
2022/10/08 05:33:35;;;;;;;28.90;16.95;;;5.70;99.90;;;;;;5057462;28;20104;-69
2022/10/08 05:36:04;;;;;;;33.05;16.85;;;5.70;99.90;;;;;;5043936;28;20033;-68
2022/10/08 05:38:30;;;;;;;29.02;16.52;;;5.80;99.90;;;;;;5049390;28;20462;-68
2022/10/08 05:41:10;;;;;;;27.08;14.77;;;5.80;99.90;;;;;;5073060;28;20024;-70
2022/10/08 05:43:35;;;;;;;34.47;15.43;;;5.90;99.90;;;;;;5070676;28;20024;-69
2022/10/08 05:46:01;;;;;;;28.20;14.45;;;5.90;99.90;;;;;;5067550;28;20442;-69
2022/10/08 05:48:26;;;;;;;23.83;13.18;;;5.90;99.90;;;;;;5066212;28;20052;-69
2022/10/08 05:50:52;;;;;;;27.77;14.50;;;5.90;99.90;;;;;;5066408;28;20512;-75
2022/10/08 05:53:17;;;;;;;29.13;14.80;;;6.00;99.90;;;;;;5066379;28;20044;-69
2022/10/08 05:55:43;;;;;;;32.33;16.42;;;6.10;99.90;;;;;;5060675;28;20033;-69
2022/10/08 05:58:08;;;;;;;33.83;17.25;;;6.10;99.90;;;;;;5071623;28;20028;-68
2022/10/08 06:00:34;;;;;;;36.03;18.25;;;6.20;99.90;;;;;;5055078;28;20049;-74
2022/10/08 06:03:00;;;;;;;29.10;16.17;;;6.30;99.90;;;;;;5042359;28;20025;-73
2022/10/08 06:05:25;;;;;;;34.58;18.92;;;6.40;99.90;;;;;;5063810;28;20512;-68
2022/10/08 06:07:51;;;;;;;31.50;15.52;;;6.50;99.90;;;;;;5066650;28;20494;-69
2022/10/08 06:10:17;;;;;;;28.02;15.18;;;6.60;99.90;;;;;;5052443;28;20017;-74
2022/10/08 06:12:43;;;;;;;28.65;15.65;;;6.80;99.90;;;;;;5072865;28;20032;-74
2022/10/08 06:15:09;;;;;;;28.77;15.65;;;6.90;99.90;;;;;;5072393;28;20020;-74
2022/10/08 06:17:34;;;;;;;35.13;20.15;;;7.00;99.90;;;;;;5072393;28;20032;-69
2022/10/08 06:20:00;;;;;;;35.55;20.30;;;7.20;99.90;;;;;;5062677;28;20024;-72
2022/10/08 06:22:25;;;;;;;34.83;21.10;;;7.30;99.90;;;;;;5073111;28;20398;-69
2022/10/08 06:24:51;;;;;;;43.42;24.00;;;7.50;99.90;;;;;;5068813;28;20029;-77
2022/10/08 06:27:16;;;;;;;43.83;24.45;;;7.70;99.90;;;;;;5041852;28;20104;-75
2022/10/08 06:29:42;;;;;;;50.92;24.75;;;7.90;99.90;;;;;;5046386;28;20021;-68
2022/10/08 06:32:08;;;;;;;40.72;24.02;;;8.10;99.90;;;;;;5054876;28;20020;-74
2022/10/08 06:34:33;;;;;;;34.55;23.00;;;8.30;99.90;;;;;;5050223;28;20025;-68
2022/10/08 06:36:59;;;;;;;41.35;22.77;;;8.50;99.90;;;;;;5054648;28;20376;-70
2022/10/08 06:39:24;;;;;;;35.78;20.48;;;8.70;99.90;;;;;;5049221;28;20129;-74
2022/10/08 06:41:50;;;;;;;31.70;20.23;;;8.90;99.90;;;;;;5068211;28;20028;-74
2022/10/08 06:44:17;;;;;;;38.17;22.17;;;9.10;99.90;;;;;;5073396;28;20494;-73
2022/10/08 06:46:44;;;;;;;36.90;22.30;;;9.30;99.90;;;;;;5072968;28;20036;-74
2022/10/08 06:49:10;;;;;;;36.28;21.10;;;9.50;99.90;;;;;;5070830;28;20025;-71
2022/10/08 06:51:36;;;;;;;30.45;21.45;;;9.80;99.90;;;;;;5059921;28;20044;-74
2022/10/08 06:54:02;;;;;;;32.40;21.98;;;10.00;99.90;;;;;;5073029;28;20056;-74
2022/10/08 06:56:28;;;;;;;31.90;20.73;;;10.20;99.90;;;;;;5072759;28;20016;-74
2022/10/08 06:58:54;;;;;;;31.63;21.10;;;10.40;99.90;;;;;;5072985;28;20111;-70
2022/10/08 07:01:22;;;;;;;34.95;22.42;;;10.60;99.90;;;;;;5072578;28;20051;-74
2022/10/08 07:03:59;;;;;;;34.35;21.00;;;10.90;99.90;;;;;;5066316;28;20063;-68
2022/10/08 07:06:25;;;;;;;42.72;22.63;;;11.10;99.90;;;;;;5051156;28;20051;-69
2022/10/08 07:08:52;;;;;;;35.25;23.17;;;11.40;99.90;;;;;;5052889;28;20029;-74
2022/10/08 07:11:19;;;;;;;42.03;26.50;;;11.60;99.90;;;;;;5051901;28;20051;-74
2022/10/08 07:13:45;;;;;;;41.35;24.83;;;11.80;99.90;;;;;;5048167;28;20057;-69
2022/10/08 07:16:14;;;;;;;43.95;25.13;;;12.00;99.90;;;;;;5057426;28;20090;-69
2022/10/08 07:18:41;;;;;;;48.65;27.77;;;12.20;99.90;;;;;;5061057;28;20483;-68
2022/10/08 07:21:09;;;;;;;49.35;29.15;;;12.40;99.90;;;;;;5072335;28;20060;-69
2022/10/08 07:23:35;;;;;;;59.65;30.23;;;12.60;99.90;;;;;;5069846;28;20025;-69
2022/10/08 07:26:03;;;;;;;57.88;29.52;;;12.70;99.90;;;;;;5067366;28;20688;-68
2022/10/08 07:28:32;;;;;;;55.42;31.73;;;12.90;99.90;;;;;;5072327;28;20024;-69
2022/10/08 07:31:03;;;;;;;49.92;28.77;;;13.10;99.90;;;;;;5059055;28;20013;-68
2022/10/08 07:33:28;;;;;;;46.83;25.45;;;13.20;99.90;;;;;;5071534;28;20113;-75
2022/10/08 07:35:54;;;;;;;40.50;25.42;;;13.40;99.90;;;;;;5062696;28;20441;-74
2022/10/08 07:38:20;;;;;;;40.78;25.17;;;13.50;99.90;;;;;;5071208;28;20150;-74
2022/10/08 07:40:47;;;;;;;35.05;23.23;;;13.70;99.90;;;;;;5061206;28;20036;-74
2022/10/08 07:43:12;;;;;;;32.95;21.92;;;13.80;99.90;;;;;;5070761;28;20036;-74
2022/10/08 07:45:44;;;;;;;26.17;18.20;;;14.00;99.90;;;;;;5072434;28;20017;-74
2022/10/08 07:48:10;;;;;;;27.67;17.38;;;14.10;99.90;;;;;;5072222;28;20060;-74
2022/10/08 07:50:35;;;;;;;22.48;15.35;;;14.20;99.90;;;;;;5050356;28;20056;-74
2022/10/08 07:53:01;;;;;;;23.67;16.70;;;14.40;99.90;;;;;;5048298;28;20471;-74
2022/10/08 07:55:27;;;;;;;23.00;15.40;;;14.50;99.90;;;;;;5049294;28;20028;-74
2022/10/08 07:57:53;;;;;;;18.30;13.45;;;14.60;99.90;;;;;;5045819;28;20112;-74
2022/10/08 08:00:19;;;;;;;26.60;14.38;;;14.70;99.90;;;;;;5048543;28;20068;-74
2022/10/08 08:02:47;;;;;;;18.58;12.63;;;14.80;99.90;;;;;;5056332;28;20052;-75
2022/10/08 08:05:12;;;;;;;14.57;10.50;;;15.00;99.90;;;;;;5072418;28;20051;-74
2022/10/08 08:07:38;;;;;;;17.55;11.25;;;14.90;99.90;;;;;;5062575;28;20080;-74
2022/10/08 08:10:04;;;;;;;18.15;11.70;;;15.10;99.90;;;;;;5056239;28;20024;-74
2022/10/08 08:12:29;;;;;;;17.05;11.40;;;15.10;99.90;;;;;;5051276;28;20051;-74
2022/10/08 08:14:55;;;;;;;14.15;10.80;;;15.20;99.90;;;;;;5050424;28;20100;-75
2022/10/08 08:17:20;;;;;;;15.85;11.18;;;15.30;99.90;;;;;;5056753;28;20198;-74
2022/10/08 08:19:46;;;;;;;15.10;9.88;;;15.40;99.90;;;;;;5053576;28;20028;-74
2022/10/08 08:22:11;;;;;;;18.75;10.85;;;15.50;99.90;;;;;;5056555;28;20174;-74
2022/10/08 08:24:37;;;;;;;13.63;8.75;;;15.70;99.90;;;;;;5054858;28;20025;-75
2022/10/08 08:27:03;;;;;;;18.10;10.07;;;15.80;99.90;;;;;;5072267;28;20494;-74
2022/10/08 08:29:28;;;;;;;19.00;9.20;;;15.80;99.90;;;;;;5072405;28;20033;-75
2022/10/08 08:31:54;;;;;;;16.52;8.60;;;15.90;99.90;;;;;;5070945;28;20071;-74
2022/10/08 08:34:23;;;;;;;10.27;7.38;;;16.00;99.90;;;;;;5044440;28;20028;-75
2022/10/08 08:36:50;;;;;;;10.10;6.95;;;16.20;99.90;;;;;;5073096;28;20127;-74
2022/10/08 08:39:21;;;;;;;10.40;6.88;;;16.10;99.90;;;;;;5072161;28;20027;-74
2022/10/08 08:42:17;;;;;;;7.57;6.50;;;16.20;99.90;;;;;;5064734;28;20148;-74
2022/10/08 08:44:46;;;;;;;9.75;6.63;;;16.20;99.90;;;;;;5072221;28;20029;-75
2022/10/08 08:47:15;;;;;;;8.02;5.97;;;16.40;99.90;;;;;;5073874;28;20048;-68
2022/10/08 08:49:49;;;;;;;9.93;6.03;;;16.50;99.90;;;;;;5061278;28;20108;-74
2022/10/08 08:52:18;;;;;;;6.82;5.60;;;16.60;99.90;;;;;;5046362;28;20171;-74
2022/10/08 08:54:52;;;;;;;10.18;6.15;;;16.50;99.90;;;;;;5046077;28;20045;-75
2022/10/08 08:57:50;;;;;;;7.10;5.82;;;16.70;99.90;;;;;;5063798;28;20389;-74
2022/10/08 09:00:22;;;;;;;9.02;6.40;;;16.80;99.90;;;;;;5061857;28;20044;-74
2022/10/08 09:03:00;;;;;;;10.38;6.88;;;17.00;99.90;;;;;;5071737;28;20055;-69
2022/10/08 09:05:29;;;;;;;8.68;6.05;;;17.10;99.90;;;;;;5070160;28;20513;-69
2022/10/08 09:08:04;;;;;;;9.82;6.45;;;17.10;99.90;;;;;;5070931;28;20574;-70
2022/10/08 09:10:45;;;;;;;8.07;6.20;;;17.10;99.90;;;;;;5073369;28;20017;-68
2022/10/08 09:13:19;;;;;;;9.38;6.88;;;17.10;99.90;;;;;;5073949;28;20028;-68
2022/10/08 09:15:45;;;;;;;8.20;6.53;;;17.10;99.80;;;;;;5062761;28;20154;-73
2022/10/08 09:18:13;;;;;;;8.32;6.30;;;17.20;99.90;;;;;;5048133;28;20128;-68
2022/10/08 09:20:39;;;;;;;6.03;5.43;;;17.20;96.40;;;;;;5073514;28;20029;-68
2022/10/08 09:23:25;;;;;;;7.10;5.20;;;17.40;95.40;;;;;;5073255;28;20053;-69
2022/10/08 09:26:04;;;;;;;17.63;6.03;;;17.60;94.00;;;;;;5055765;28;20023;-68
2022/10/08 09:28:43;;;;;;;7.07;5.95;;;17.70;93.00;;;;;;5073443;28;20032;-69
2022/10/08 09:31:23;;;;;;;7.55;6.20;;;17.70;90.20;;;;;;5061095;28;20029;-69
2022/10/08 09:33:58;;;;;;;7.78;5.57;;;17.70;89.60;;;;;;5054704;28;20147;-69
2022/10/08 09:36:49;;;;;;;11.57;6.18;;;17.70;89.00;;;;;;5053284;28;20028;-74
2022/10/08 09:39:26;;;;;;;6.57;5.63;;;17.70;87.30;;;;;;5050450;28;20036;-73
2022/10/08 09:42:07;;;;;;;8.52;5.72;;;17.70;87.20;;;;;;5051940;28;20036;-74
2022/10/08 09:44:59;;;;;;;6.78;6.10;;;17.70;87.50;;;;;;5050563;28;20021;-69
2022/10/08 09:47:26;;;;;;;6.27;5.67;;;17.60;89.20;;;;;;5053036;28;20025;-69
2022/10/08 09:50:17;;;;;;;6.00;5.40;;;17.60;87.60;;;;;;5051005;28;20263;-73
2022/10/08 09:52:45;;;;;;;6.32;4.85;;;17.60;89.10;;;;;;5050152;28;20025;-70
2022/10/08 09:55:31;;;;;;;7.53;5.70;;;17.50;87.50;;;;;;5049931;28;20025;-69
2022/10/08 09:58:02;;;;;;;6.82;5.18;;;17.50;89.00;;;;;;5050265;28;20037;-69
2022/10/08 10:00:31;;;;;;;7.38;6.15;;;17.60;90.00;;;;;;5049850;28;20045;-74
2022/10/08 10:02:59;;;;;;;6.90;5.40;;;17.50;89.00;;;;;;5051611;28;20457;-69
2022/10/08 10:05:28;;;;;;;6.03;5.43;;;17.60;90.50;;;;;;5052361;28;20636;-69
2022/10/08 10:07:54;;;;;;;11.95;5.72;;;17.60;88.60;;;;;;5052548;28;20029;-74
2022/10/08 10:10:31;;;;;;;10.77;5.75;;;17.70;89.20;;;;;;5052209;28;20021;-74
2022/10/08 10:13:33;;;;;;;9.20;6.63;;;17.70;90.50;;;;;;5052935;28;20032;-69
2022/10/08 10:16:03;;;;;;;6.57;5.97;;;17.80;92.10;;;;;;5034259;28;20017;-69
2022/10/08 10:18:57;;;;;;;7.93;5.72;;;17.80;86.20;;;;;;5048186;28;20427;-74
2022/10/08 10:21:29;;;;;;;6.68;5.82;;;17.80;85.30;;;;;;5054074;28;20394;-74
2022/10/08 10:24:28;;;;;;;31.05;18.80;;;17.90;87.30;;;;;;5057655;28;20032;-70
2022/10/08 10:26:59;;;;;;;34.72;18.27;;;17.90;85.50;;;;;;5073797;28;20031;-69
2022/10/08 10:29:33;;;;;;;10.18;8.13;;;18.10;87.70;;;;;;5033994;28;20112;-70
2022/10/08 10:32:05;;;;;;;12.63;8.25;;;18.10;85.60;;;;;;5034327;28;20021;-69
2022/10/08 10:34:38;;;;;;;10.70;8.00;;;18.10;84.80;;;;;;5052776;28;20017;-69
2022/10/08 10:37:23;;;;;;;7.32;6.53;;;18.00;83.90;;;;;;5053824;28;20021;-74
2022/10/08 10:40:02;;;;;;;9.80;6.97;;;17.90;84.80;;;;;;5052580;28;20053;-70
2022/10/08 10:42:42;;;;;;;9.40;7.32;;;17.90;88.00;;;;;;5053808;28;20055;-69
2022/10/08 10:45:23;;;;;;;9.50;6.90;;;17.90;87.90;;;;;;5052322;28;20422;-69
2022/10/08 10:47:52;;;;;;;8.98;7.65;;;18.00;90.00;;;;;;5053832;28;20496;-69
2022/10/08 10:50:36;;;;;;;11.50;8.65;;;17.90;88.90;;;;;;5053533;28;20025;-74
2022/10/08 10:53:07;;;;;;;12.63;9.25;;;17.80;88.30;;;;;;5053640;28;20029;-69
2022/10/08 10:56:17;;;;;;;12.07;8.20;;;17.80;91.10;;;;;;5053558;28;20083;-73
2022/10/08 10:58:58;;;;;;;10.23;7.93;;;17.90;93.40;;;;;;5048123;28;20120;-69
2022/10/08 11:01:38;;;;;;;12.07;8.68;;;18.00;93.60;;;;;;5053254;28;20041;-69
2022/10/08 11:04:42;;;;;;;11.18;8.88;;;17.90;94.20;;;;;;5053396;28;20091;-74
2022/10/08 11:07:31;;;;;;;15.15;10.40;;;18.10;97.40;;;;;;5050682;28;20044;-69
2022/10/08 11:10:11;;;;;;;10.77;9.15;;;18.10;96.90;;;;;;5053500;28;20021;-74
2022/10/08 11:13:16;;;;;;;12.35;10.23;;;18.10;98.00;;;;;;5053375;28;20033;-70
2022/10/08 11:16:02;;;;;;;11.75;9.55;;;18.10;95.00;;;;;;5053213;28;20040;-69
2022/10/08 11:18:28;;;;;;;13.45;9.50;;;17.90;93.70;;;;;;5063593;28;20496;-74
2022/10/08 11:21:21;;;;;;;13.00;9.38;;;17.90;95.60;;;;;;5071937;28;20020;-73
2022/10/08 11:24:19;;;;;;;11.52;10.02;;;18.00;97.90;;;;;;5065966;28;20032;-69
2022/10/08 11:27:10;;;;;;;12.80;10.13;;;18.00;98.90;;;;;;5053241;28;20021;-69
2022/10/08 11:29:59;;;;;;;14.05;9.57;;;18.10;99.50;;;;;;5053191;28;20094;-74
2022/10/08 11:32:25;;;;;;;12.93;9.52;;;18.20;96.60;;;;;;5053230;28;20017;-74
2022/10/08 11:35:21;;;;;;;10.85;9.27;;;18.30;93.10;;;;;;5055917;28;20029;-72
2022/10/08 11:37:50;;;;;;;13.52;8.70;;;18.30;92.40;;;;;;5057323;28;20029;-74
2022/10/08 11:40:55;;;;;;;11.68;9.07;;;18.40;94.90;;;;;;5057158;28;20079;-69
2022/10/08 11:43:20;;;;;;;13.63;9.10;;;18.40;94.50;;;;;;5057255;28;20032;-69
2022/10/08 11:45:48;;;;;;;11.85;8.65;;;18.40;93.90;;;;;;5057039;28;20028;-69
2022/10/08 11:48:29;;;;;;;12.52;9.77;;;18.40;95.70;;;;;;5057023;28;20025;-74
2022/10/08 11:51:18;;;;;;;16.10;10.27;;;18.40;94.90;;;;;;5055632;28;20430;-74
2022/10/08 11:54:20;;;;;;;14.15;10.00;;;18.40;97.20;;;;;;5056973;28;20028;-74
2022/10/08 11:57:10;;;;;;;11.95;10.50;;;18.30;94.60;;;;;;5055674;28;20025;-73
2022/10/08 11:59:39;;;;;;;13.13;10.25;;;18.30;95.50;;;;;;5056876;28;20386;-74
2022/10/08 12:02:22;;;;;;;14.15;10.93;;;18.50;97.60;;;;;;5056691;28;20037;-74
2022/10/08 12:04:49;;;;;;;15.40;12.35;;;18.50;97.00;;;;;;5056763;28;20025;-74
2022/10/08 12:07:18;;;;;;;13.48;11.32;;;18.40;95.30;;;;;;5056634;28;20483;-69
2022/10/08 12:10:06;;;;;;;17.13;10.95;;;18.50;98.00;;;;;;5056678;28;20025;-74
2022/10/08 12:12:50;;;;;;;15.85;11.52;;;18.50;99.40;;;;;;5056675;28;20032;-69
2022/10/08 12:15:28;;;;;;;14.55;12.38;;;18.50;99.00;;;;;;5056403;28;20029;-74
2022/10/08 12:17:54;;;;;;;14.85;10.90;;;18.50;97.10;;;;;;5058562;28;20029;-69
2022/10/08 12:20:23;;;;;;;15.43;11.55;;;18.60;99.90;;;;;;5076442;28;20044;-73
2022/10/08 12:23:10;;;;;;;14.85;9.98;;;18.70;99.90;;;;;;5075928;28;20535;-69
2022/10/08 12:25:58;;;;;;;13.07;11.23;;;18.70;99.90;;;;;;5036459;28;20391;-69
2022/10/08 12:28:26;;;;;;;15.30;10.68;;;18.80;99.40;;;;;;5040275;28;20099;-69
2022/10/08 12:31:01;;;;;;;13.50;11.25;;;18.70;97.60;;;;;;5054915;28;20123;-74
2022/10/08 12:33:28;;;;;;;13.27;10.60;;;18.70;98.60;;;;;;5049960;28;20033;-75
2022/10/08 12:36:08;;;;;;;13.75;10.98;;;18.80;99.80;;;;;;5051790;28;20013;-75
2022/10/08 12:38:49;;;;;;;13.63;10.65;;;18.80;98.80;;;;;;5051341;28;20486;-69
2022/10/08 12:41:48;;;;;;;16.33;11.25;;;18.90;99.90;;;;;;5055093;28;20139;-68
2022/10/08 12:44:41;;;;;;;14.18;11.52;;;19.00;99.90;;;;;;5053380;28;20062;-74
2022/10/08 12:47:39;;;;;;;14.00;10.48;;;18.90;99.00;;;;;;5052924;28;20136;-69
2022/10/08 12:50:17;;;;;;;13.95;11.07;;;18.90;97.10;;;;;;5055695;28;20112;-70
2022/10/08 12:52:43;;;;;;;15.00;11.38;;;18.60;98.70;;;;;;5055640;28;20075;-75
2022/10/08 12:55:18;;;;;;;14.45;11.57;;;18.50;99.90;;;;;;5055720;28;20060;-69
2022/10/08 12:57:47;;;;;;;20.65;11.90;;;18.40;99.90;;;;;;5055486;28;20025;-69
2022/10/08 13:00:27;;;;;;;17.02;11.55;;;18.40;99.90;;;;;;5055297;28;20037;-75